Last Tycoon — ZDJZ6 — position and weather

sailwx.info

Track history (hours):
 
Tides and Currents Weather Stations Pressure Air Temp Water Temp Dewpoint Dewpoint Depression Visibility Wind Speed Wind Dir Waves Ship Positions

Last Tycoon

Last reported at 2015-Apr-10 22:13 UTC. Time now 2015-May-03 23:56 UTC.
Position N 14°45' W 061°48'.
Warning: this ship's position is 23 days out of date.

Length 180 m; draft 10.1 m.

Type: Cargo ship. MMSI: 236607000.

Date/timePositionNaut miles runAvg speedWind from/ knotsBaromVisibWave heightAir tempDewpointWater temp
2015-Apr-10 22:13N 14°45' W 061°48'912.9
2015-Apr-10 21:33N 14°51' W 061°41'1912.9
2015-Apr-10 20:04N 15°02' W 061°25'  
2015-Apr-03 16:33N 35°33' W 026°58'1313.1
2015-Apr-03 15:33N 35°38' W 026°43'1313.2
2015-Apr-03 14:33N 35°44' W 026°29'1313.1
2015-Apr-03 13:32N 35°49' W 026°14'1312.9
2015-Apr-03 12:33N 35°55' W 025°60'1312.7
2015-Apr-03 11:33N 36°01' W 025°46'1312.6
2015-Apr-03 10:33N 36°06' W 025°32'1312.6
2015-Apr-03 09:33N 36°12' W 025°17'1312.7
2015-Apr-03 08:33N 36°16' W 025°03'1312.9
2015-Apr-03 07:34N 36°23' W 024°49'1313.0
2015-Apr-03 06:33N 36°30' W 024°36'1313.3
2015-Apr-03 05:33N 36°38' W 024°22'1413.7
2015-Apr-03 04:33N 36°46' W 024°08'1413.7
2015-Apr-03 03:33N 36°53' W 023°54'1413.8
2015-Apr-03 02:33N 37°01' W 023°40'1413.9
2015-Apr-03 01:33N 37°09' W 023°25'1413.7
2015-Apr-03 00:30N 37°17' W 023°10'1613.9
2015-Apr-02 23:21N 37°26' W 022°53'1113.9
2015-Apr-02 22:32N 37°32' W 022°41'7513.9
2015-Apr-02 17:08N 38°13' W 021°22'6414.0
2015-Apr-02 12:34N 38°46' W 020°12'8313.6
2015-Apr-02 06:25N 39°30' W 018°40'3913.5
2015-Apr-02 03:32N 39°50' W 017°57'6913.3
2015-Apr-01 22:19N 40°24' W 016°39'  
Track history (hours):
 
Tides and Currents Weather Stations Pressure Air Temp Water Temp Dewpoint Dewpoint Depression Visibility Wind Speed Wind Dir Waves Ship Positions

Last Tycoon

Last reported at 2015-Apr-10 22:13 UTC. Time now 2015-May-03 23:56 UTC.
Position N 14°45' W 061°48'.
Warning: this ship's position is 23 days out of date.

Length 180 m; draft 10.1 m.

Type: Cargo ship. MMSI: 236607000.

Date/timePositionNaut miles runAvg speedWind from/ knotsBaromVisibWave heightAir tempDewpointWater temp
2015-Apr-10 22:13N 14°45' W 061°48'912.9
2015-Apr-10 21:33N 14°51' W 061°41'1912.9
2015-Apr-10 20:04N 15°02' W 061°25'  
2015-Apr-03 16:33N 35°33' W 026°58'1313.1
2015-Apr-03 15:33N 35°38' W 026°43'1313.2
2015-Apr-03 14:33N 35°44' W 026°29'1313.1
2015-Apr-03 13:32N 35°49' W 026°14'1312.9
2015-Apr-03 12:33N 35°55' W 025°60'1312.7
2015-Apr-03 11:33N 36°01' W 025°46'1312.6
2015-Apr-03 10:33N 36°06' W 025°32'1312.6
2015-Apr-03 09:33N 36°12' W 025°17'1312.7
2015-Apr-03 08:33N 36°16' W 025°03'1312.9
2015-Apr-03 07:34N 36°23' W 024°49'1313.0
2015-Apr-03 06:33N 36°30' W 024°36'1313.3
2015-Apr-03 05:33N 36°38' W 024°22'1413.7
2015-Apr-03 04:33N 36°46' W 024°08'1413.7
2015-Apr-03 03:33N 36°53' W 023°54'1413.8
2015-Apr-03 02:33N 37°01' W 023°40'1413.9
2015-Apr-03 01:33N 37°09' W 023°25'1413.7
2015-Apr-03 00:30N 37°17' W 023°10'1613.9
2015-Apr-02 23:21N 37°26' W 022°53'1113.9
2015-Apr-02 22:32N 37°32' W 022°41'7513.9
2015-Apr-02 17:08N 38°13' W 021°22'6414.0
2015-Apr-02 12:34N 38°46' W 020°12'8313.6
2015-Apr-02 06:25N 39°30' W 018°40'3913.5
2015-Apr-02 03:32N 39°50' W 017°57'6913.3
2015-Apr-01 22:19N 40°24' W 016°39'  

Dump ship's entire track history